09/10 --> 14/10: Aire calido y humedo. Lluvioso en el norte

Avatar de Usuario
Diecha
Mensajes: 15125
Registrado: Jue Ago 25, 2011 9:31 pm
Ubicación: Lomas de Zamora

Re: 09/10 --> 14/10: Aire calido y humedo. Lluvioso en el no

Mensaje por Diecha » Mar Oct 15, 2013 5:01 am

Datos de las 04 hs:

- San Luis: 13,9°C / 100% / Cubierto con tormenta (3 Km de visibilidad) / Viento del SE a 13 Km/h.
- Villa Reynolds: 17,0°C / 96% / Cubierto con tormenta (7 Km de visibilidad) / Viento del NO a 18 Km/h.
- San Rafael: 12,8°C / 97% / Cubierto con tormenta (4 Km de visibilidad) / Viento del N a 7 Km/h.

- Esquel: SAVE 150700Z 29024G42KT 9999 SCT030 BKN200 14/03 Q1014 (ráfaga de 78 Km/h)

Imagen
Imagen
Imagen

Cerrado